createdAt,value
2022-11-15T00:00:54.290Z,90.43
2022-11-15T00:03:23.477Z,90.76
2022-11-15T00:05:50.277Z,90.73
2022-11-15T00:08:17.533Z,90.85
2022-11-15T00:10:54.275Z,91.04
2022-11-15T00:13:20.585Z,91.30
2022-11-15T00:15:46.971Z,91.60
2022-11-15T00:18:14.917Z,91.90
2022-11-15T00:20:41.313Z,91.63
2022-11-15T00:23:07.984Z,91.91
2022-11-15T00:25:34.405Z,91.88
2022-11-15T00:28:01.601Z,91.95
2022-11-15T00:30:28.622Z,92.44
2022-11-15T00:32:55.491Z,92.69
2022-11-15T00:35:22.593Z,92.76
2022-11-15T00:37:49.227Z,92.75
2022-11-15T00:40:15.899Z,92.92
2022-11-15T00:42:42.743Z,93.13
2022-11-15T00:45:10.198Z,93.15
2022-11-15T00:47:36.629Z,93.39
2022-11-15T00:50:03.236Z,93.67
2022-11-15T00:52:29.619Z,93.76
2022-11-15T00:54:56.000Z,93.76
2022-11-15T00:57:22.339Z,94.23
2022-11-15T00:59:48.658Z,94.12
2022-11-15T01:02:15.043Z,94.18
2022-11-15T01:04:41.364Z,94.14
2022-11-15T01:07:07.769Z,94.53
2022-11-15T01:09:34.193Z,94.76
2022-11-15T01:12:00.577Z,94.81
2022-11-15T01:14:27.150Z,94.70
2022-11-15T01:16:53.571Z,94.73
2022-11-15T01:19:19.947Z,95.02
2022-11-15T01:21:46.263Z,95.01
2022-11-15T01:24:15.690Z,94.97
2022-11-15T01:26:42.023Z,94.93
2022-11-15T01:29:08.366Z,95.27
2022-11-15T01:31:35.974Z,95.03
2022-11-15T01:34:02.455Z,95.04
2022-11-15T01:36:28.875Z,95.10
2022-11-15T01:38:56.891Z,95.12
2022-11-15T01:41:26.120Z,95.28
2022-11-15T01:43:58.287Z,95.30
2022-11-15T01:46:34.120Z,95.42
2022-11-15T01:49:11.474Z,95.41
2022-11-15T01:51:38.582Z,95.52
2022-11-15T01:54:09.648Z,95.43
2022-11-15T01:56:46.297Z,95.43
2022-11-15T01:59:13.445Z,95.49
2022-11-15T02:01:39.982Z,95.52
2022-11-15T02:04:13.832Z,95.64
2022-11-15T02:06:41.308Z,95.71
2022-11-15T02:09:07.929Z,95.78
2022-11-15T02:11:34.631Z,95.76
2022-11-15T02:14:02.168Z,95.81
2022-11-15T02:16:47.179Z,95.85
2022-11-15T02:19:41.058Z,95.98
2022-11-15T02:22:35.398Z,95.88
2022-11-15T02:25:16.982Z,95.83
2022-11-15T02:28:08.563Z,95.94
2022-11-15T02:30:44.092Z,95.67
2022-11-15T02:33:25.882Z,96.15
2022-11-15T02:36:02.613Z,95.90
2022-11-15T02:38:28.872Z,95.96
2022-11-15T02:41:10.419Z,95.97
2022-11-15T02:44:14.347Z,95.84
2022-11-15T02:47:02.255Z,96.17
2022-11-15T02:49:32.254Z,96.07
2022-11-15T02:51:58.718Z,96.14
2022-11-15T02:54:29.530Z,96.15
2022-11-15T02:57:00.922Z,96.11
2022-11-15T03:00:01.947Z,96.32
2022-11-15T03:02:55.581Z,96.14
2022-11-15T03:05:40.495Z,96.24
2022-11-15T03:08:09.799Z,96.09
2022-11-15T03:10:54.813Z,96.08
2022-11-15T03:13:45.529Z,96.03
2022-11-15T03:16:27.299Z,96.02
2022-11-15T03:19:38.532Z,96.13
2022-11-15T03:22:08.061Z,96.29
2022-11-15T03:24:37.227Z,96.15
2022-11-15T03:27:06.490Z,96.04
2022-11-15T03:29:36.769Z,96.23
2022-11-15T03:32:11.653Z,96.47
2022-11-15T03:34:48.157Z,96.36
2022-11-15T03:37:16.859Z,96.00
2022-11-15T03:39:44.119Z,96.15
2022-11-15T03:42:17.765Z,96.44
2022-11-15T03:45:02.782Z,96.51
2022-11-15T03:47:59.367Z,96.57
2022-11-15T03:50:26.828Z,96.54
2022-11-15T03:52:55.401Z,96.34
2022-11-15T03:55:22.178Z,96.56
2022-11-15T03:57:54.407Z,96.32
2022-11-15T04:00:20.859Z,96.60
2022-11-15T04:02:47.234Z,96.55
2022-11-15T04:05:13.546Z,96.44
2022-11-15T04:07:40.021Z,96.28
2022-11-15T04:10:07.322Z,96.81
2022-11-15T04:12:36.463Z,96.75
2022-11-15T04:15:23.626Z,96.67
2022-11-15T04:17:55.038Z,96.40
2022-11-15T04:20:46.636Z,96.52
2022-11-15T04:23:32.487Z,96.69
2022-11-15T04:26:01.970Z,96.84
2022-11-15T04:28:28.505Z,96.68
2022-11-15T04:30:54.922Z,96.68
2022-11-15T04:33:22.285Z,96.64
2022-11-15T04:36:08.632Z,96.73
2022-11-15T04:38:35.955Z,96.53
2022-11-15T04:41:03.034Z,96.55
2022-11-15T04:43:30.209Z,96.40
2022-11-15T04:45:56.780Z,96.67
2022-11-15T04:48:23.127Z,96.49
2022-11-15T04:50:50.003Z,96.67
2022-11-15T04:53:16.596Z,96.67
2022-11-15T04:55:46.297Z,96.72
2022-11-15T04:58:12.604Z,96.98
2022-11-15T05:00:40.645Z,96.84
2022-11-15T05:03:25.458Z,96.72
2022-11-15T05:05:51.844Z,96.79
2022-11-15T05:08:18.172Z,96.96
2022-11-15T05:10:44.474Z,97.08
2022-11-15T05:13:10.782Z,96.67
2022-11-15T05:15:37.105Z,97.24
2022-11-15T05:18:03.523Z,96.95
2022-11-15T05:20:29.851Z,96.92
2022-11-15T05:22:59.019Z,97.10
2022-11-15T05:25:25.702Z,96.76
2022-11-15T05:27:52.100Z,96.74
2022-11-15T05:30:18.647Z,96.80
2022-11-15T05:32:45.476Z,96.89
2022-11-15T05:35:22.575Z,96.65
2022-11-15T05:37:49.563Z,96.77
2022-11-15T05:40:16.370Z,96.76
2022-11-15T05:42:42.699Z,97.09
2022-11-15T05:45:10.365Z,96.80
2022-11-15T05:47:39.529Z,96.72
2022-11-15T05:50:06.600Z,97.22
2022-11-15T05:52:37.056Z,96.74
2022-11-15T05:55:05.598Z,97.10
2022-11-15T05:57:31.961Z,96.83
2022-11-15T05:59:59.108Z,97.03
2022-11-15T06:02:25.553Z,96.75
2022-11-15T06:04:51.897Z,96.76
2022-11-15T06:07:18.308Z,96.96
2022-11-15T06:09:44.732Z,96.86
2022-11-15T06:12:11.036Z,96.86
2022-11-15T06:14:37.453Z,96.95
2022-11-15T06:17:08.557Z,96.89
2022-11-15T06:19:37.440Z,97.30
2022-11-15T06:22:03.840Z,97.09
2022-11-15T06:24:30.218Z,97.30
2022-11-15T06:26:56.593Z,97.20
2022-11-15T06:29:22.935Z,96.80
2022-11-15T06:31:49.449Z,96.89
2022-11-15T06:34:15.826Z,96.71
2022-11-15T06:36:42.135Z,96.96
2022-11-15T06:39:08.528Z,96.67
2022-11-15T06:41:36.094Z,96.76
2022-11-15T06:44:03.728Z,96.76
2022-11-15T06:46:30.152Z,96.61
2022-11-15T06:48:56.515Z,96.81
2022-11-15T06:51:22.863Z,97.00
2022-11-15T06:53:49.236Z,96.70
2022-11-15T06:56:15.557Z,96.84
2022-11-15T06:58:41.942Z,96.99
2022-11-15T07:01:12.101Z,96.93
2022-11-15T07:03:41.406Z,96.98
2022-11-15T07:06:08.947Z,96.88
2022-11-15T07:08:36.280Z,96.89
2022-11-15T07:11:04.779Z,96.50
2022-11-15T07:13:36.196Z,96.71
2022-11-15T07:16:04.761Z,96.84
2022-11-15T07:18:31.253Z,96.86
2022-11-15T07:21:01.515Z,97.06
2022-11-15T07:23:28.045Z,96.78
2022-11-15T07:25:54.471Z,96.52
2022-11-15T07:28:20.932Z,96.59
2022-11-15T07:30:47.476Z,96.62
2022-11-15T07:33:13.874Z,96.90
2022-11-15T07:35:40.262Z,96.80
2022-11-15T07:38:06.567Z,96.54
2022-11-15T07:40:33.322Z,96.51
2022-11-15T07:43:01.761Z,96.54
2022-11-15T07:45:28.283Z,96.97
2022-11-15T07:47:56.779Z,96.66
2022-11-15T07:50:26.504Z,96.50
2022-11-15T07:52:57.407Z,96.52
2022-11-15T07:55:24.961Z,96.59
2022-11-15T07:57:51.401Z,96.21
2022-11-15T08:00:18.598Z,96.25
2022-11-15T08:02:46.163Z,95.98
2022-11-15T08:05:12.792Z,96.02
2022-11-15T08:07:39.646Z,95.87
2022-11-15T08:10:08.144Z,95.85
2022-11-15T08:12:35.088Z,95.81
2022-11-15T08:15:01.554Z,95.76
2022-11-15T08:17:27.881Z,95.47
2022-11-15T08:19:54.266Z,95.33
2022-11-15T08:22:20.632Z,95.53
2022-11-15T08:24:46.957Z,95.63
2022-11-15T08:27:16.237Z,95.22
2022-11-15T08:29:43.945Z,95.25
2022-11-15T08:32:11.749Z,95.15
2022-11-15T08:34:39.232Z,94.70
2022-11-15T08:37:05.792Z,94.61
2022-11-15T08:39:32.407Z,94.35
2022-11-15T08:41:58.976Z,94.59
2022-11-15T08:44:25.322Z,94.37
2022-11-15T08:46:51.826Z,94.36
2022-11-15T08:49:19.157Z,94.33
2022-11-15T08:51:45.503Z,94.05
2022-11-15T08:54:11.861Z,94.18
2022-11-15T08:56:38.180Z,94.24
2022-11-15T08:59:04.507Z,93.75
2022-11-15T09:01:30.897Z,93.90
2022-11-15T09:03:57.293Z,93.95
2022-11-15T09:06:23.829Z,93.82
2022-11-15T09:08:50.185Z,93.45
2022-11-15T09:11:18.857Z,93.42
2022-11-15T09:13:45.360Z,93.05
2022-11-15T09:16:13.549Z,92.73
2022-11-15T09:18:39.891Z,92.72
2022-11-15T09:21:06.236Z,92.19
2022-11-15T09:23:32.607Z,91.64
2022-11-15T09:26:04.110Z,91.40
2022-11-15T09:28:32.022Z,91.14
2022-11-15T09:31:00.040Z,91.00
2022-11-15T09:33:27.360Z,90.50
2022-11-15T09:35:54.148Z,90.71
2022-11-15T09:38:21.263Z,90.30
2022-11-15T09:40:56.669Z,90.13
2022-11-15T09:43:58.223Z,89.63
2022-11-15T09:46:43.387Z,89.45
2022-11-15T09:49:12.812Z,89.06
2022-11-15T09:51:48.644Z,88.49
2022-11-15T09:54:56.537Z,87.78
2022-11-15T09:58:05.017Z,87.75
2022-11-15T10:00:48.209Z,86.61
2022-11-15T10:03:17.484Z,85.87
2022-11-15T10:05:46.904Z,84.95
2022-11-15T10:08:32.290Z,84.39
2022-11-15T10:14:11.087Z,84.11
2022-11-15T10:16:50.651Z,83.35
2022-11-15T10:19:27.181Z,83.18
2022-11-15T10:22:27.541Z,82.28
2022-11-15T10:25:21.960Z,81.39
2022-11-15T10:27:53.915Z,81.27
2022-11-15T10:30:21.270Z,81.39
2022-11-15T10:32:50.209Z,79.86
2022-11-15T10:35:20.358Z,80.70
2022-11-15T10:37:46.777Z,80.14
2022-11-15T10:40:24.629Z,80.13
2022-11-15T10:43:09.879Z,80.07
2022-11-15T10:45:36.660Z,79.79
2022-11-15T10:48:15.215Z,79.13
2022-11-15T10:50:43.823Z,78.47
2022-11-15T10:53:22.609Z,79.27
2022-11-15T10:55:52.409Z,79.23
2022-11-15T10:58:28.964Z,78.81
2022-11-15T11:00:55.496Z,79.13
2022-11-15T11:03:27.899Z,78.70
2022-11-15T11:06:13.853Z,78.52
2022-11-15T11:08:40.786Z,78.10
2022-11-15T11:11:08.851Z,78.23
2022-11-15T11:13:40.474Z,77.51
2022-11-15T11:16:15.753Z,76.87
2022-11-15T11:18:57.125Z,74.81
2022-11-15T11:21:44.590Z,75.89
2022-11-15T11:24:35.054Z,75.10
2022-11-15T11:27:18.638Z,75.48
2022-11-15T11:30:03.227Z,75.57
2022-11-15T11:32:54.791Z,74.38
2022-11-15T11:35:31.776Z,74.90
2022-11-15T11:38:37.200Z,75.77
2022-11-15T11:41:30.816Z,74.61
2022-11-15T11:44:12.431Z,75.21
2022-11-15T11:46:57.681Z,74.23
2022-11-15T11:49:29.826Z,74.28
2022-11-15T11:52:12.161Z,74.05
2022-11-15T11:54:49.934Z,73.73
2022-11-15T11:57:26.651Z,73.28
2022-11-15T12:00:04.518Z,72.61
2022-11-15T12:02:44.223Z,72.84
2022-11-15T12:05:18.518Z,71.82
2022-11-15T12:07:49.453Z,71.81
2022-11-15T12:10:24.202Z,70.82
2022-11-15T12:13:06.958Z,70.31
2022-11-15T12:15:46.661Z,70.69
2022-11-15T12:18:16.472Z,69.63
2022-11-15T12:20:54.227Z,68.81
2022-11-15T12:23:26.388Z,69.26
2022-11-15T12:26:03.939Z,69.27
2022-11-15T12:29:04.791Z,68.47
2022-11-15T12:31:35.164Z,69.47
2022-11-15T12:34:40.743Z,69.68
2022-11-15T12:37:39.197Z,68.25
2022-11-15T12:40:25.293Z,66.65
2022-11-15T12:43:15.798Z,66.32
2022-11-15T12:45:46.721Z,67.10
2022-11-15T12:48:19.291Z,66.53
2022-11-15T12:50:51.611Z,66.73
2022-11-15T12:53:24.072Z,66.29
2022-11-15T12:56:05.498Z,66.00
2022-11-15T12:58:59.549Z,67.51
2022-11-15T13:01:31.954Z,66.74
2022-11-15T13:04:20.203Z,66.80
2022-11-15T13:06:48.356Z,66.31
2022-11-15T13:09:29.785Z,66.32
2022-11-15T13:11:57.794Z,66.81
2022-11-15T13:14:48.750Z,66.52
2022-11-15T13:17:21.030Z,66.59
2022-11-15T13:19:59.615Z,67.40
2022-11-15T13:22:46.180Z,67.06
2022-11-15T13:25:21.232Z,67.33
2022-11-15T13:27:49.958Z,67.38
2022-11-15T13:30:28.512Z,67.37
2022-11-15T13:32:55.611Z,67.51
2022-11-15T13:35:31.039Z,68.00
2022-11-15T13:37:58.694Z,68.00
2022-11-15T13:40:28.600Z,68.06
2022-11-15T13:42:55.128Z,68.09
2022-11-15T13:45:21.619Z,68.42
2022-11-15T13:47:58.937Z,69.18
2022-11-15T13:50:34.454Z,69.31
2022-11-15T13:53:04.341Z,69.41
2022-11-15T13:55:33.921Z,69.55
2022-11-15T13:58:07.007Z,69.31
2022-11-15T14:00:36.367Z,69.96
2022-11-15T14:03:15.665Z,69.82
2022-11-15T14:05:42.211Z,69.27
2022-11-15T14:08:17.372Z,69.67
2022-11-15T14:10:43.825Z,69.34
2022-11-15T14:13:29.158Z,69.32
2022-11-15T14:15:55.506Z,69.83
2022-11-15T14:18:46.825Z,70.05
2022-11-15T14:21:13.810Z,70.46
2022-11-15T14:23:40.263Z,70.69
2022-11-15T14:26:11.915Z,70.40
2022-11-15T14:28:41.422Z,70.37
2022-11-15T14:31:13.886Z,70.29
2022-11-15T14:33:41.096Z,70.38
2022-11-15T14:36:16.146Z,70.13
2022-11-15T14:38:43.824Z,70.35
2022-11-15T14:41:20.877Z,70.13
2022-11-15T14:43:47.372Z,70.05
2022-11-15T14:46:13.863Z,70.21
2022-11-15T14:48:40.198Z,70.42
2022-11-15T14:51:21.825Z,70.35
2022-11-15T14:53:48.993Z,70.74
2022-11-15T14:56:17.179Z,70.26
2022-11-15T14:58:43.664Z,70.38
2022-11-15T15:01:24.417Z,70.24
2022-11-15T15:03:53.071Z,70.07
2022-11-15T15:06:19.799Z,69.62
2022-11-15T15:08:48.940Z,69.60
2022-11-15T15:11:21.619Z,69.29
2022-11-15T15:13:48.416Z,68.80
2022-11-15T15:16:14.821Z,69.12
2022-11-15T15:18:41.150Z,69.43
2022-11-15T15:21:20.895Z,69.23
2022-11-15T15:23:47.296Z,69.37
2022-11-15T15:26:13.703Z,69.74
2022-11-15T15:28:40.404Z,69.22
2022-11-15T15:31:07.863Z,69.53
2022-11-15T15:33:34.236Z,69.42
2022-11-15T15:36:00.597Z,69.18
2022-11-15T15:38:27.205Z,69.42
2022-11-15T15:40:53.561Z,69.34
2022-11-15T15:43:19.908Z,69.24
2022-11-15T15:45:46.484Z,69.80
2022-11-15T15:48:17.830Z,68.85
2022-11-15T15:50:46.019Z,69.42
2022-11-15T15:53:13.779Z,69.81
2022-11-15T15:55:40.831Z,69.53
2022-11-15T15:58:08.938Z,69.49
2022-11-15T16:00:35.258Z,69.08
2022-11-15T16:03:01.606Z,68.85
2022-11-15T16:05:28.071Z,68.84
2022-11-15T16:07:54.494Z,68.66
2022-11-15T16:10:32.707Z,69.12
2022-11-15T16:12:59.279Z,69.21
2022-11-15T16:15:28.222Z,69.11
2022-11-15T16:17:56.754Z,69.09
2022-11-15T16:20:47.365Z,69.61
2022-11-15T16:23:18.872Z,69.19
2022-11-15T16:25:47.939Z,69.21
2022-11-15T16:28:30.293Z,69.57
2022-11-15T16:31:03.887Z,69.24
2022-11-15T16:33:31.264Z,69.30
2022-11-15T16:35:58.553Z,69.21
2022-11-15T16:38:24.922Z,69.16
2022-11-15T16:40:51.340Z,69.33
2022-11-15T16:43:18.249Z,69.43
2022-11-15T16:45:44.867Z,69.85
2022-11-15T16:48:28.590Z,69.75
2022-11-15T16:50:57.142Z,69.85
2022-11-15T16:53:24.088Z,69.94
2022-11-15T16:55:50.520Z,70.25
2022-11-15T16:58:16.923Z,70.42
2022-11-15T17:00:43.583Z,70.86
2022-11-15T17:03:10.537Z,71.44
2022-11-15T17:05:36.863Z,72.03
2022-11-15T17:08:03.212Z,72.29
2022-11-15T17:10:29.609Z,72.68
2022-11-15T17:12:56.338Z,73.00
2022-11-15T17:15:24.398Z,73.07
2022-11-15T17:17:52.982Z,73.31
2022-11-15T17:20:21.018Z,73.49
2022-11-15T17:22:47.534Z,74.03
2022-11-15T17:25:14.067Z,74.17
2022-11-15T17:27:41.000Z,74.94
2022-11-15T17:30:08.022Z,75.74
2022-11-15T17:32:37.578Z,76.31
2022-11-15T17:35:11.947Z,77.27
2022-11-15T17:37:41.408Z,77.96
2022-11-15T17:40:08.208Z,78.66
2022-11-15T17:42:34.545Z,79.28
2022-11-15T17:45:04.024Z,79.71
2022-11-15T17:47:34.675Z,79.84
2022-11-15T17:50:00.999Z,80.33
2022-11-15T17:52:27.347Z,80.79
2022-11-15T17:54:53.671Z,80.93
2022-11-15T17:57:20.037Z,81.19
2022-11-15T17:59:46.353Z,81.83
2022-11-15T18:02:12.791Z,82.30
2022-11-15T18:04:40.547Z,82.29
2022-11-15T18:07:06.959Z,82.86
2022-11-15T18:09:33.304Z,83.37
2022-11-15T18:11:59.699Z,83.71
2022-11-15T18:14:26.614Z,83.97
2022-11-15T18:16:54.832Z,84.49
2022-11-15T18:19:21.146Z,84.91
2022-11-15T18:21:56.810Z,84.70
2022-11-15T18:24:34.848Z,85.41
2022-11-15T18:27:02.782Z,85.37
2022-11-15T18:29:29.172Z,85.97
2022-11-15T18:31:55.941Z,86.02
2022-11-15T18:34:33.356Z,86.42
2022-11-15T18:37:02.572Z,86.69
2022-11-15T18:39:29.012Z,86.58
2022-11-15T18:41:55.876Z,87.03
2022-11-15T18:44:22.322Z,87.31
2022-11-15T18:46:48.678Z,87.31
2022-11-15T18:49:16.961Z,87.22
2022-11-15T18:51:43.898Z,87.89
2022-11-15T18:54:14.527Z,87.61
2022-11-15T18:56:41.432Z,88.17
2022-11-15T18:59:08.720Z,88.29
2022-11-15T19:01:40.930Z,88.11
2022-11-15T19:04:14.356Z,88.50
2022-11-15T19:06:42.947Z,88.74
2022-11-15T19:09:11.011Z,88.43
2022-11-15T19:11:39.543Z,88.99
2022-11-15T19:14:07.742Z,88.90
2022-11-15T19:16:37.048Z,88.70
2022-11-15T19:19:07.039Z,89.09
2022-11-15T19:21:33.540Z,89.01
2022-11-15T19:24:00.670Z,89.19
2022-11-15T19:26:28.313Z,89.52
2022-11-15T19:28:57.042Z,89.39
2022-11-15T19:31:24.725Z,89.71
2022-11-15T19:33:52.658Z,89.55
2022-11-15T19:36:24.007Z,89.84
2022-11-15T19:38:50.356Z,89.71
2022-11-15T19:41:19.089Z,90.06
2022-11-15T19:43:50.663Z,89.74
2022-11-15T19:46:18.552Z,90.04
2022-11-15T19:48:44.930Z,90.22
2022-11-15T19:51:13.293Z,90.54
2022-11-15T19:53:40.425Z,90.76
2022-11-15T19:56:11.398Z,90.94
2022-11-15T19:58:38.292Z,91.13
2022-11-15T20:01:07.289Z,90.94
2022-11-15T20:03:35.964Z,91.34
2022-11-15T20:06:05.166Z,90.98
2022-11-15T20:08:32.612Z,91.38
2022-11-15T20:11:00.734Z,91.47
2022-11-15T20:13:27.968Z,91.51
2022-11-15T20:15:54.959Z,91.88
2022-11-15T20:18:21.722Z,92.25
2022-11-15T20:20:48.161Z,92.29
2022-11-15T20:23:14.697Z,92.78
2022-11-15T20:25:44.649Z,92.76
2022-11-15T20:28:16.628Z,92.62
2022-11-15T20:30:47.539Z,92.85
2022-11-15T20:33:14.887Z,92.76
2022-11-15T20:35:41.252Z,92.93
2022-11-15T20:38:08.143Z,92.80
2022-11-15T20:40:34.680Z,93.23
2022-11-15T20:43:01.031Z,93.27
2022-11-15T20:45:27.349Z,93.35
2022-11-15T20:47:59.966Z,93.48
2022-11-15T20:50:42.301Z,93.72
2022-11-15T20:53:10.821Z,93.34
2022-11-15T20:55:41.587Z,93.75
2022-11-15T20:58:09.359Z,93.88
2022-11-15T21:00:36.800Z,94.09
2022-11-15T21:03:07.260Z,93.88
2022-11-15T21:05:35.097Z,93.99
2022-11-15T21:08:01.663Z,94.39
2022-11-15T21:10:46.338Z,94.55
2022-11-15T21:13:12.723Z,94.20
2022-11-15T21:15:39.042Z,94.05
2022-11-15T21:18:05.599Z,94.32
2022-11-15T21:20:31.987Z,94.35
2022-11-15T21:22:58.312Z,94.69
2022-11-15T21:25:24.622Z,94.42
2022-11-15T21:27:52.249Z,94.69
2022-11-15T21:30:18.745Z,94.42
2022-11-15T21:32:45.543Z,94.72
2022-11-15T21:35:12.000Z,94.78
2022-11-15T21:37:38.359Z,94.56
2022-11-15T21:40:05.221Z,94.73
2022-11-15T21:42:31.523Z,94.60
2022-11-15T21:44:57.926Z,94.81
2022-11-15T21:47:24.239Z,94.98
2022-11-15T21:49:50.607Z,94.74
2022-11-15T21:52:16.989Z,94.75
2022-11-15T21:54:44.432Z,94.33
2022-11-15T21:57:11.242Z,94.52
2022-11-15T22:00:00.151Z,94.69
2022-11-15T22:02:26.534Z,94.53
2022-11-15T22:04:52.916Z,94.47
2022-11-15T22:07:19.333Z,94.56
2022-11-15T22:09:45.799Z,94.66
2022-11-15T22:12:12.692Z,94.40
2022-11-15T22:14:39.081Z,94.69
2022-11-15T22:17:05.508Z,94.60
2022-11-15T22:19:31.913Z,94.65
2022-11-15T22:21:58.335Z,94.32
2022-11-15T22:24:24.871Z,94.39
2022-11-15T22:26:51.178Z,94.70
2022-11-15T22:29:17.493Z,94.46
2022-11-15T22:31:43.895Z,94.70
2022-11-15T22:34:10.295Z,94.57
2022-11-15T22:36:58.387Z,95.04
2022-11-15T22:39:23.062Z,94.95
2022-11-15T22:41:49.439Z,95.16
2022-11-15T22:44:15.789Z,95.34
2022-11-15T22:46:42.197Z,95.27
2022-11-15T22:49:09.197Z,95.50
2022-11-15T22:51:35.681Z,95.25
2022-11-15T22:54:02.335Z,95.41
2022-11-15T22:56:28.654Z,95.64
2022-11-15T22:58:55.074Z,95.61
2022-11-15T23:01:22.006Z,95.59
2022-11-15T23:03:48.737Z,95.55
2022-11-15T23:06:15.209Z,95.51
2022-11-15T23:08:41.960Z,95.66
2022-11-15T23:11:29.133Z,95.71
2022-11-15T23:13:55.617Z,95.63
2022-11-15T23:16:22.569Z,95.55
2022-11-15T23:18:59.403Z,95.46
2022-11-15T23:21:50.461Z,95.46
2022-11-15T23:24:17.751Z,95.44
2022-11-15T23:26:46.107Z,95.38
2022-11-15T23:29:14.575Z,95.52
2022-11-15T23:32:02.486Z,95.60
2022-11-15T23:34:30.522Z,95.56
2022-11-15T23:36:57.343Z,95.84
2022-11-15T23:39:23.866Z,95.85
2022-11-15T23:41:50.327Z,95.73
2022-11-15T23:44:16.643Z,95.78
2022-11-15T23:46:43.007Z,96.04
2022-11-15T23:49:09.669Z,95.99
2022-11-15T23:51:36.214Z,95.91
2022-11-15T23:54:02.645Z,96.06
2022-11-15T23:56:29.056Z,95.80
2022-11-15T23:58:55.444Z,96.02
